Terminal Aerodrome Forecast
Issued by NWS

Home | Current Version | Previous Version | Text Only | Print | Product List | Glossary On
Versions: 1 2 3 4 5 6 7 8 9 10 11 12 13 14 15 16 17 18 19 20
000
FTUS42 KMHX 211100
TAFOAJ
TAF
KOAJ 211135Z 2112/2212 00000KT 2SM BR BKN002
     FM211300 24005KT P6SM SCT040
     FM211700 24006KT P6SM VCTS SCT040CB
     FM220100 20003KT P6SM SCT050 BKN150
      AMD LTD TO CLD VIS AND WIND=

USA.gov is the U.S. government's official web portal to all federal, state and local government web resources and services.